Time;durP1;ratioP1;P1;durP2;ratioP2;P2;SDS_P1;SDS_P2;PMS_P1;PMS_P2;Temp;Humidity;BMP_temperature;BMP_pressure;BME280_temperature;BME280_humidity;BME280_pressure;Samples;Min_cycle;Max_cycle;Signal;HPM_P1;HPM_P2
2023/08/11 00:02:50;;;;;;;5.60;3.40;;;;;;;12.39;70.74;100713.70;130979;1253;108586;-77
2023/08/11 00:05:56;;;;;;;4.30;3.20;;;;;;;12.36;70.54;100713.10;130998;1250;107552;-77
2023/08/11 00:09:03;;;;;;;4.20;3.10;;;;;;;12.35;70.67;100709.20;131078;1253;106892;-76
2023/08/11 00:12:09;;;;;;;4.40;3.70;;;;;;;12.36;70.66;100708.45;131047;1250;107581;-77
2023/08/11 00:15:16;;;;;;;5.40;3.70;;;;;;;12.32;70.60;100709.52;130979;1251;107675;-77
2023/08/11 00:18:22;;;;;;;6.50;3.60;;;;;;;12.28;70.74;100706.10;130986;1250;107309;-76
2023/08/11 00:21:27;;;;;;;5.40;3.80;;;;;;;12.21;70.68;100700.36;131054;1251;107972;-76
2023/08/11 00:24:33;;;;;;;5.40;3.50;;;;;;;12.16;70.82;100698.64;131037;1253;108442;-76
2023/08/11 00:27:38;;;;;;;5.20;3.40;;;;;;;12.13;70.82;100696.61;131093;1251;106633;-76
2023/08/11 00:30:44;;;;;;;4.10;3.20;;;;;;;12.09;70.73;100704.89;131066;1254;108698;-76
2023/08/11 00:33:51;;;;;;;4.70;3.20;;;;;;;12.03;70.80;100699.73;130976;1254;106798;-76
2023/08/11 00:36:57;;;;;;;5.90;3.00;;;;;;;12.00;70.78;100698.68;131037;1254;108361;-75
2023/08/11 00:40:04;;;;;;;4.00;2.80;;;;;;;11.96;70.74;100702.05;130995;1255;108618;-76
2023/08/11 00:43:10;;;;;;;4.70;3.30;;;;;;;11.93;70.87;100702.71;131065;1251;107681;-76
2023/08/11 00:46:16;;;;;;;6.90;3.20;;;;;;;11.91;70.76;100700.73;131029;1253;107929;-76
2023/08/11 00:49:21;;;;;;;4.60;2.90;;;;;;;11.92;70.65;100701.34;130949;1254;161283;-76
2023/08/11 00:52:27;;;;;;;6.80;3.10;;;;;;;11.91;70.69;100699.69;131140;1250;106779;-76
2023/08/11 00:55:33;;;;;;;4.70;3.30;;;;;;;11.86;70.66;100698.04;130968;1253;106288;-76
2023/08/11 00:58:41;;;;;;;5.30;3.30;;;;;;;11.84;70.80;100699.81;130996;1254;106353;-75
2023/08/11 01:01:46;;;;;;;5.60;3.70;;;;;;;11.80;70.88;100699.48;131019;1256;107697;-76
2023/08/11 01:04:52;;;;;;;4.20;3.50;;;;;;;11.76;70.94;100698.45;131136;1253;108534;-75
2023/08/11 01:08:10;;;;;;;3.70;3.20;;;;;;;11.69;70.77;100698.38;130984;1253;106738;-76
2023/08/11 01:11:22;;;;;;;6.60;3.40;;;;;;;11.62;70.97;100701.06;131117;1250;107678;-76
2023/08/11 01:14:37;;;;;;;6.00;3.20;;;;;;;11.57;70.98;100701.90;130919;1252;108382;-76
2023/08/11 01:17:46;;;;;;;4.10;2.90;;;;;;;11.52;71.15;100703.30;131116;1255;106472;-76
2023/08/11 01:20:54;;;;;;;5.20;3.20;;;;;;;11.50;71.06;100703.27;131181;1250;106962;-76
2023/08/11 01:24:01;;;;;;;4.60;3.10;;;;;;;11.50;71.05;100701.66;131016;1253;107637;-75
2023/08/11 01:27:07;;;;;;;3.70;2.90;;;;;;;11.50;71.03;100701.89;131041;1253;106341;-77
2023/08/11 01:30:14;;;;;;;4.20;3.10;;;;;;;11.51;71.11;100697.15;130983;1256;107406;-76
2023/08/11 01:33:20;;;;;;;5.80;3.10;;;;;;;11.49;70.79;100696.43;131029;1253;107946;-76
2023/08/11 01:36:25;;;;;;;4.50;3.20;;;;;;;11.44;70.86;100696.77;131007;1253;107642;-75
2023/08/11 01:39:33;;;;;;;5.40;3.00;;;;;;;11.38;70.78;100694.80;131063;1253;107234;-76
2023/08/11 01:42:39;;;;;;;5.60;3.50;;;;;;;11.32;71.02;100693.83;130950;1257;106409;-76
2023/08/11 01:45:48;;;;;;;3.80;3.10;;;;;;;11.27;70.90;100693.52;131044;1255;107220;-76
2023/08/11 01:48:56;;;;;;;3.50;2.90;;;;;;;11.26;70.99;100689.96;131111;1250;106753;-75
2023/08/11 01:52:03;;;;;;;5.90;2.90;;;;;;;11.21;70.90;100689.64;131170;1253;106732;-76
2023/08/11 01:55:10;;;;;;;4.60;3.50;;;;;;;11.14;70.92;100684.25;131020;1256;107237;-77
2023/08/11 01:58:16;;;;;;;5.90;3.60;;;;;;;11.06;70.86;100682.36;131126;1256;106838;-76
2023/08/11 02:01:22;;;;;;;4.70;3.30;;;;;;;11.02;71.23;100679.23;131000;1253;107831;-76
2023/08/11 02:04:29;;;;;;;4.30;3.10;;;;;;;11.00;71.24;100675.09;130990;1266;106696;-76
2023/08/11 02:07:34;;;;;;;5.50;3.00;;;;;;;11.01;71.14;100681.98;131035;1254;106487;-76
2023/08/11 02:10:40;;;;;;;4.60;3.70;;;;;;;10.99;70.99;100684.94;130953;1250;106387;-75
2023/08/11 02:13:45;;;;;;;4.60;3.40;;;;;;;10.99;71.01;100685.64;131051;1253;106783;-75
2023/08/11 02:16:52;;;;;;;3.70;3.20;;;;;;;10.98;71.17;100685.64;131110;1253;107072;-76
2023/08/11 02:19:58;;;;;;;3.60;3.00;;;;;;;10.96;71.48;100683.27;131103;1253;108383;-76
2023/08/11 02:23:04;;;;;;;5.60;3.50;;;;;;;10.95;71.10;100679.70;131055;1253;107729;-76
2023/08/11 02:26:12;;;;;;;4.90;3.40;;;;;;;10.91;71.05;100685.61;131116;1250;107724;-76
2023/08/11 02:29:18;;;;;;;5.10;3.20;;;;;;;10.87;71.02;100686.71;131066;1254;106593;-77
2023/08/11 02:32:24;;;;;;;5.90;3.70;;;;;;;10.81;71.24;100688.66;131199;1253;107747;-79
2023/08/11 02:35:29;;;;;;;5.00;3.60;;;;;;;10.77;71.03;100689.88;131061;1251;107937;-79
2023/08/11 02:38:36;;;;;;;6.20;3.30;;;;;;;10.71;71.41;100691.85;131109;1253;107699;-81
2023/08/11 02:41:42;;;;;;;3.60;2.60;;;;;;;10.67;71.32;100693.02;131067;1257;107754;-78
2023/08/11 02:44:48;;;;;;;4.80;2.80;;;;;;;10.65;71.38;100691.72;130946;1256;106895;-77
2023/08/11 02:47:54;;;;;;;5.10;3.50;;;;;;;10.65;71.29;100691.39;131128;1253;106545;-80
2023/08/11 02:51:00;;;;;;;4.40;3.30;;;;;;;10.66;71.68;100693.62;130992;1250;107018;-77
2023/08/11 02:54:06;;;;;;;6.20;3.10;;;;;;;10.66;71.15;100694.20;131032;1256;106844;-77
2023/08/11 02:57:12;;;;;;;4.50;3.30;;;;;;;10.64;71.70;100696.51;131040;1253;107218;-77
2023/08/11 03:00:18;;;;;;;6.90;3.30;;;;;;;10.62;71.48;100698.23;130971;1253;106960;-77
2023/08/11 03:03:24;;;;;;;4.20;3.30;;;;;;;10.61;71.31;100698.48;130949;1256;106301;-77
2023/08/11 03:06:29;;;;;;;4.40;3.30;;;;;;;10.59;71.33;100701.52;131048;1251;107033;-77
2023/08/11 03:09:35;;;;;;;4.10;3.30;;;;;;;10.55;71.80;100704.21;131014;1251;107055;-78
2023/08/11 03:12:41;;;;;;;5.70;3.20;;;;;;;10.53;71.56;100703.35;131159;1254;106682;-78
2023/08/11 03:15:47;;;;;;;5.90;3.40;;;;;;;10.51;71.54;100704.94;131017;1253;106301;-77
2023/08/11 03:18:53;;;;;;;6.90;3.30;;;;;;;10.49;71.44;100705.83;131008;1255;107647;-77
2023/08/11 03:22:00;;;;;;;4.50;2.70;;;;;;;10.46;71.39;100708.63;131027;1251;107550;-77
2023/08/11 03:25:07;;;;;;;5.10;2.80;;;;;;;10.44;71.77;100707.93;130994;1253;106715;-77
2023/08/11 03:28:13;;;;;;;3.40;2.50;;;;;;;10.43;71.60;100707.66;131087;1253;106600;-78
2023/08/11 03:31:20;;;;;;;5.30;3.00;;;;;;;10.45;72.02;100710.46;131024;1253;106559;-78
2023/08/11 03:34:28;;;;;;;5.30;3.20;;;;;;;10.48;71.90;100710.55;131038;1251;106398;-77
2023/08/11 03:37:34;;;;;;;4.60;3.20;;;;;;;10.48;71.58;100714.08;131036;1250;107587;-77
2023/08/11 03:40:40;;;;;;;5.20;3.60;;;;;;;10.47;71.47;100714.27;130980;1250;107422;-77
2023/08/11 03:43:47;;;;;;;4.80;3.20;;;;;;;10.45;71.67;100717.77;130986;1251;106789;-78
2023/08/11 03:46:53;;;;;;;5.60;3.40;;;;;;;10.48;71.87;100720.14;131023;1251;107306;-77
2023/08/11 03:49:59;;;;;;;5.60;3.70;;;;;;;10.50;71.59;100723.88;131012;1253;106340;-78
2023/08/11 03:53:05;;;;;;;4.90;3.30;;;;;;;10.52;71.94;100722.98;130932;1253;107614;-79
2023/08/11 03:56:11;;;;;;;5.10;3.50;;;;;;;10.58;72.12;100723.84;131071;1251;106736;-78
2023/08/11 03:59:21;;;;;;;4.50;3.20;;;;;;;10.69;71.98;100725.58;130995;1253;107693;-78
2023/08/11 04:02:29;;;;;;;3.50;2.80;;;;;;;10.83;71.92;100716.77;131126;1254;106877;-77
2023/08/11 04:05:34;;;;;;;3.80;2.80;;;;;;;11.02;71.92;100718.40;131055;1255;106737;-80
2023/08/11 04:08:40;;;;;;;3.20;2.60;;;;;;;11.21;71.87;100718.71;131169;1253;107257;-78
2023/08/11 04:11:46;;;;;;;4.20;3.40;;;;;;;11.35;72.00;100716.10;131076;1253;106006;-80
2023/08/11 04:14:51;;;;;;;4.30;3.20;;;;;;;11.47;71.70;100718.95;131045;1253;106755;-77
2023/08/11 04:17:59;;;;;;;4.70;3.00;;;;;;;11.56;71.96;100720.68;130959;1251;108683;-79
2023/08/11 04:21:05;;;;;;;6.20;3.00;;;;;;;11.71;71.99;100717.71;131049;1256;106453;-77
2023/08/11 04:24:11;;;;;;;3.60;2.90;;;;;;;11.85;71.71;100714.87;131137;1250;107064;-77
2023/08/11 04:27:17;;;;;;;4.90;3.50;;;;;;;11.95;71.95;100713.88;130985;1256;106571;-76
2023/08/11 04:30:23;;;;;;;4.60;3.50;;;;;;;12.11;72.08;100719.89;130858;1256;107274;-77
2023/08/11 04:33:32;;;;;;;4.60;3.80;;;;;;;12.32;72.21;100718.52;131021;1251;106536;-77
2023/08/11 04:36:38;;;;;;;5.30;3.90;;;;;;;12.53;72.10;100716.02;131180;1251;107589;-78
2023/08/11 04:39:45;;;;;;;5.10;3.50;;;;;;;12.75;72.14;100722.39;131050;1256;107769;-77
2023/08/11 04:42:51;;;;;;;4.40;3.50;;;;;;;12.95;72.34;100718.77;131022;1255;107474;-78
2023/08/11 04:45:59;;;;;;;4.00;2.90;;;;;;;13.07;72.36;100717.70;131101;1250;108746;-77
2023/08/11 04:49:06;;;;;;;4.00;2.70;;;;;;;13.15;72.36;100719.86;131027;1251;107740;-77
2023/08/11 04:52:12;;;;;;;3.80;2.70;;;;;;;13.33;72.63;100720.74;131003;1253;106751;-78
2023/08/11 04:55:18;;;;;;;3.20;2.80;;;;;;;13.60;72.69;100719.88;130963;1257;108508;-78
2023/08/11 04:58:24;;;;;;;4.00;2.60;;;;;;;13.84;72.59;100724.70;131007;1251;107658;-79
2023/08/11 05:01:30;;;;;;;4.90;3.00;;;;;;;13.98;72.23;100727.94;130920;1251;109274;-78
2023/08/11 05:04:35;;;;;;;5.30;2.90;;;;;;;14.12;72.69;100732.47;131206;1254;107731;-77
2023/08/11 05:07:41;;;;;;;3.70;2.30;;;;;;;14.31;72.86;100735.27;131041;1253;107396;-78
2023/08/11 05:10:46;;;;;;;3.50;2.20;;;;;;;14.53;72.98;100730.25;131036;1253;108688;-78
2023/08/11 05:13:54;;;;;;;4.30;2.60;;;;;;;14.78;72.88;100727.89;131002;1253;107317;-78
2023/08/11 05:16:59;;;;;;;3.30;2.70;;;;;;;15.05;73.23;100724.73;130999;1253;107922;-78
2023/08/11 05:20:07;;;;;;;4.60;2.70;;;;;;;15.31;73.16;100722.92;130973;1250;106523;-78
2023/08/11 05:23:13;;;;;;;8.20;6.30;;;;;;;15.54;73.23;100722.07;130988;1250;107435;-78
2023/08/11 05:26:19;;;;;;;5.60;4.40;;;;;;;15.75;73.16;100720.99;130996;1257;107338;-79
2023/08/11 05:29:24;;;;;;;4.60;3.10;;;;;;;15.94;73.25;100724.95;130970;1254;107818;-78
2023/08/11 05:32:31;;;;;;;3.50;2.70;;;;;;;16.13;73.51;100722.55;131171;1250;107105;-78
2023/08/11 05:35:37;;;;;;;4.60;2.70;;;;;;;16.32;73.73;100727.40;131103;1253;106910;-78
2023/08/11 05:38:43;;;;;;;3.30;2.40;;;;;;;16.49;73.76;100719.84;130967;1256;108442;-75
2023/08/11 05:41:48;;;;;;;3.70;2.60;;;;;;;16.66;73.77;100721.50;131042;1253;107142;-77
2023/08/11 05:44:54;;;;;;;2.40;2.00;;;;;;;16.84;73.80;100718.67;131022;1251;108473;-76
2023/08/11 05:48:00;;;;;;;3.00;2.10;;;;;;;17.02;74.07;100724.67;131066;1256;106710;-76
2023/08/11 05:51:05;;;;;;;3.40;2.70;;;;;;;17.19;73.99;100724.44;131122;1253;108660;-76
2023/08/11 05:54:11;;;;;;;4.00;2.40;;;;;;;17.35;73.95;100724.37;131176;1255;108737;-77
2023/08/11 05:57:17;;;;;;;2.50;2.10;;;;;;;17.48;73.89;100723.80;131032;1254;108732;-75
2023/08/11 06:00:23;;;;;;;2.40;2.00;;;;;;;17.58;73.41;100725.14;130978;1256;107703;-75
2023/08/11 06:03:30;;;;;;;2.50;1.90;;;;;;;17.66;73.15;100725.95;131080;1253;107950;-75
2023/08/11 06:06:36;;;;;;;3.60;2.10;;;;;;;17.74;72.85;100724.27;131001;1253;106327;-75
2023/08/11 06:09:42;;;;;;;2.60;2.00;;;;;;;17.80;72.83;100721.85;131059;1256;108549;-75
2023/08/11 06:12:47;;;;;;;2.80;2.10;;;;;;;17.86;72.26;100721.23;131072;1251;107586;-75
2023/08/11 06:15:53;;;;;;;3.50;1.80;;;;;;;17.91;72.53;100720.02;131125;1253;105700;-76
2023/08/11 06:18:59;;;;;;;2.70;1.80;;;;;;;17.98;72.22;100721.67;131234;1251;108753;-75
2023/08/11 06:22:05;;;;;;;3.40;2.10;;;;;;;18.04;71.80;100718.92;131074;1255;106757;-76
2023/08/11 06:25:11;;;;;;;4.00;1.90;;;;;;;18.11;71.34;100722.57;131159;1250;106258;-76
2023/08/11 06:28:17;;;;;;;2.80;1.80;;;;;;;18.18;71.50;100723.14;131182;1250;108713;-75
2023/08/11 06:31:24;;;;;;;2.50;1.90;;;;;;;18.26;71.06;100728.63;130992;1256;107884;-76
2023/08/11 06:34:29;;;;;;;4.20;2.20;;;;;;;18.29;70.36;100730.98;131098;1256;108666;-76
2023/08/11 06:37:35;;;;;;;3.00;1.70;;;;;;;18.34;70.32;100732.86;131117;1253;106579;-76
2023/08/11 06:40:40;;;;;;;4.50;1.80;;;;;;;18.38;69.08;100739.73;131201;1253;106386;-76
2023/08/11 06:43:47;;;;;;;1.90;1.60;;;;;;;18.42;69.32;100740.13;131011;1253;106461;-76
2023/08/11 06:46:52;;;;;;;3.50;1.60;;;;;;;18.46;69.47;100740.22;131004;1256;106688;-77
2023/08/11 06:49:58;;;;;;;1.80;1.60;;;;;;;18.50;67.08;100746.08;131008;1257;107504;-75
2023/08/11 06:53:04;;;;;;;2.50;1.60;;;;;;;18.51;67.66;100742.80;131046;1256;107881;-76
2023/08/11 06:56:10;;;;;;;2.20;1.50;;;;;;;18.59;68.65;100745.83;131039;1253;107789;-75
2023/08/11 06:59:17;;;;;;;2.30;1.70;;;;;;;18.65;67.51;100747.71;131028;1251;106828;-75
2023/08/11 07:02:22;;;;;;;4.40;1.80;;;;;;;18.70;67.84;100752.13;131043;1254;107673;-76
2023/08/11 07:05:28;;;;;;;4.00;1.70;;;;;;;18.77;67.02;100748.23;131237;1251;107078;-76
2023/08/11 07:08:33;;;;;;;2.90;1.80;;;;;;;18.84;67.92;100746.58;131045;1253;106663;-76
2023/08/11 07:11:39;;;;;;;3.20;2.00;;;;;;;18.90;66.49;100748.70;131073;1253;108801;-76
2023/08/11 07:14:44;;;;;;;3.30;1.80;;;;;;;18.95;66.06;100750.57;131055;1254;107829;-76
2023/08/11 07:17:50;;;;;;;2.90;1.40;;;;;;;19.02;65.00;100749.42;131070;1253;107010;-76
2023/08/11 07:20:55;;;;;;;3.30;1.80;;;;;;;19.07;65.10;100744.55;131110;1255;107504;-76
2023/08/11 07:24:02;;;;;;;2.10;1.60;;;;;;;19.12;65.42;100747.70;131181;1250;107246;-77
2023/08/11 07:27:07;;;;;;;3.10;1.40;;;;;;;19.19;65.69;100747.34;131023;1254;108358;-76
2023/08/11 07:30:13;;;;;;;3.00;1.80;;;;;;;19.26;65.74;100747.19;131529;1253;108613;-75
2023/08/11 07:33:19;;;;;;;2.90;1.50;;;;;;;19.35;65.15;100745.61;131178;1253;107784;-76
2023/08/11 07:36:25;;;;;;;2.70;1.40;;;;;;;19.42;64.22;100747.86;131119;1255;107766;-76
2023/08/11 07:39:31;;;;;;;2.70;1.50;;;;;;;19.52;63.59;100746.25;131056;1250;107531;-76
2023/08/11 07:42:36;;;;;;;3.00;1.50;;;;;;;19.63;63.92;100747.14;131003;1254;107196;-78
2023/08/11 07:45:42;;;;;;;2.50;1.40;;;;;;;19.70;62.23;100748.35;131085;1251;107923;-78
2023/08/11 07:48:47;;;;;;;2.80;1.40;;;;;;;19.78;62.10;100750.61;131263;1253;106813;-73
2023/08/11 07:51:57;;;;;;;1.80;1.30;;;;;;;19.89;63.05;100751.74;131168;1255;107809;-74
2023/08/11 07:55:02;;;;;;;2.40;1.50;;;;;;;19.97;63.14;100752.15;131104;1257;108390;-74
2023/08/11 07:58:08;;;;;;;2.00;1.50;;;;;;;20.03;61.38;100750.17;131062;1253;107939;-73
2023/08/11 08:01:14;;;;;;;2.70;1.60;;;;;;;20.07;60.39;100751.10;131084;1256;107849;-74
2023/08/11 08:04:19;;;;;;;2.40;1.60;;;;;;;20.12;59.46;100751.91;131144;1251;106772;-74
2023/08/11 08:07:25;;;;;;;2.60;1.90;;;;;;;20.16;60.04;100755.09;130929;1253;108511;-74
2023/08/11 08:10:30;;;;;;;6.00;2.80;;;;;;;20.25;60.36;100757.08;131087;1260;108543;-74
2023/08/11 08:13:36;;;;;;;2.70;1.40;;;;;;;20.35;59.65;100757.84;131192;1254;109513;-74
2023/08/11 08:16:44;;;;;;;2.60;1.50;;;;;;;20.41;58.78;100760.18;131010;1251;107601;-74
2023/08/11 08:19:50;;;;;;;2.40;1.40;;;;;;;20.44;58.32;100760.35;131081;1253;107003;-74
2023/08/11 08:22:56;;;;;;;4.10;2.00;;;;;;;20.48;57.86;100757.91;131150;1253;106244;-75
2023/08/11 08:26:02;;;;;;;3.00;1.50;;;;;;;20.54;57.74;100754.99;131269;1253;108481;-75
2023/08/11 08:29:09;;;;;;;2.00;1.30;;;;;;;20.60;57.57;100753.86;131132;1253;107102;-76
2023/08/11 08:32:15;;;;;;;3.00;1.50;;;;;;;20.64;56.95;100753.45;131122;1250;108515;-75
2023/08/11 08:35:20;;;;;;;2.30;1.40;;;;;;;20.71;56.33;100752.92;131090;1253;106699;-75
2023/08/11 08:38:26;;;;;;;2.10;1.50;;;;;;;20.76;57.92;100750.33;131093;1257;107119;-75
2023/08/11 08:41:33;;;;;;;2.50;1.30;;;;;;;20.85;56.67;100748.16;131096;1253;106677;-75
2023/08/11 08:44:40;;;;;;;2.30;1.30;;;;;;;20.91;54.40;100745.45;131177;1264;107723;-76
2023/08/11 08:47:46;;;;;;;3.30;1.30;;;;;;;20.96;55.04;100744.04;131051;1263;106611;-75
2023/08/11 08:50:52;;;;;;;2.20;1.20;;;;;;;21.06;55.80;100741.14;131099;1256;107892;-75
2023/08/11 08:53:59;;;;;;;1.30;1.20;;;;;;;21.12;56.01;100738.42;131064;1257;106613;-75
2023/08/11 08:57:09;;;;;;;2.50;1.30;;;;;;;21.19;53.60;100740.42;131085;1254;107714;-75
2023/08/11 09:00:18;;;;;;;2.00;1.30;;;;;;;21.24;51.35;100743.58;131035;1251;107655;-75
2023/08/11 09:03:24;;;;;;;2.10;1.40;;;;;;;21.24;51.54;100745.64;130994;1254;108413;-75
2023/08/11 09:06:32;;;;;;;2.20;1.30;;;;;;;21.09;52.49;100743.23;131128;1251;106378;-75
2023/08/11 09:09:37;;;;;;;2.80;1.30;;;;;;;21.01;52.92;100746.23;131159;1253;106556;-75
2023/08/11 09:12:44;;;;;;;3.20;1.40;;;;;;;21.06;52.63;100748.73;131142;1254;107487;-76
2023/08/11 09:15:50;;;;;;;3.90;1.30;;;;;;;21.16;53.57;100744.93;131069;1254;106875;-76
2023/08/11 09:18:56;;;;;;;1.70;1.20;;;;;;;21.15;53.55;100747.60;130994;1257;106919;-75
2023/08/11 09:22:02;;;;;;;2.60;1.70;;;;;;;21.18;52.91;100748.10;131097;1251;106946;-74
2023/08/11 09:25:10;;;;;;;4.30;1.50;;;;;;;21.11;52.86;100746.85;131060;1253;106097;-74
2023/08/11 09:28:16;;;;;;;2.20;1.80;;;;;;;20.99;52.04;100750.50;130985;1253;107603;-75
2023/08/11 09:31:24;;;;;;;4.50;1.90;;;;;;;20.98;52.53;100751.97;131006;1255;105746;-75
2023/08/11 09:34:30;;;;;;;5.00;1.90;;;;;;;21.05;52.76;100754.38;131168;1254;107660;-74
2023/08/11 09:37:36;;;;;;;3.20;1.80;;;;;;;21.01;52.99;100754.96;131007;1255;108123;-74
2023/08/11 09:40:42;;;;;;;3.50;1.80;;;;;;;20.91;53.01;100755.13;130970;1251;107962;-74
2023/08/11 09:43:53;;;;;;;2.80;1.40;;;;;;;20.90;53.44;100753.00;130968;1257;107006;-74
2023/08/11 09:47:00;;;;;;;4.30;1.70;;;;;;;21.13;54.12;100754.48;130970;1255;107914;-74
2023/08/11 09:50:09;;;;;;;2.90;1.60;;;;;;;21.33;52.91;100749.13;131045;1253;108608;-74
2023/08/11 09:53:15;;;;;;;3.10;1.80;;;;;;;21.53;53.79;100741.87;131079;1253;107760;-74
2023/08/11 09:56:22;;;;;;;4.40;2.20;;;;;;;21.63;51.91;100745.48;131149;1253;107511;-75
2023/08/11 09:59:28;;;;;;;2.70;1.90;;;;;;;21.47;52.32;100748.82;131040;1257;107332;-74
2023/08/11 10:02:35;;;;;;;3.30;1.70;;;;;;;21.34;53.59;100749.79;130987;1257;106942;-74
2023/08/11 10:05:50;;;;;;;1.90;1.70;;;;;;;21.38;54.09;100747.31;131117;1261;108456;-74
2023/08/11 10:08:58;;;;;;;3.30;1.80;;;;;;;21.55;53.49;100742.74;130987;1251;106920;-77
2023/08/11 10:12:07;;;;;;;2.00;1.60;;;;;;;21.68;52.07;100744.49;130990;1256;106509;-74
2023/08/11 10:15:17;;;;;;;2.40;1.60;;;;;;;21.80;51.77;100737.48;131144;1251;105758;-75
2023/08/11 10:18:23;;;;;;;2.00;1.60;;;;;;;21.85;51.24;100738.90;131036;1255;108201;-74
2023/08/11 10:21:29;;;;;;;3.00;1.90;;;;;;;21.95;51.96;100743.63;131051;1256;108651;-74
2023/08/11 10:24:37;;;;;;;2.80;1.70;;;;;;;22.09;52.48;100733.98;131001;1257;107770;-74
2023/08/11 10:27:44;;;;;;;3.10;1.90;;;;;;;22.21;50.48;100732.16;131083;1256;107987;-74
2023/08/11 10:30:58;;;;;;;2.30;1.40;;;;;;;22.26;50.66;100730.90;130994;1257;106507;-74
2023/08/11 10:34:08;;;;;;;1.60;1.40;;;;;;;22.34;48.17;100734.16;131061;1253;107688;-74
2023/08/11 10:37:15;;;;;;;3.00;1.80;;;;;;;22.39;49.21;100736.51;131029;1255;108804;-74
2023/08/11 10:40:21;;;;;;;2.80;1.60;;;;;;;22.25;49.00;100739.89;130995;1257;107556;-74
2023/08/11 10:43:33;;;;;;;2.60;1.60;;;;;;;22.20;50.07;100736.80;131092;1256;108717;-74
2023/08/11 10:46:41;;;;;;;4.30;2.20;;;;;;;22.35;47.88;100744.66;131032;1257;107488;-74
2023/08/11 10:49:48;;;;;;;2.50;1.40;;;;;;;22.43;48.28;100737.78;131047;1263;107611;-74
2023/08/11 10:53:08;;;;;;;2.40;1.50;;;;;;;22.32;48.69;100738.23;131053;1256;107910;-74
2023/08/11 10:56:15;;;;;;;3.50;1.60;;;;;;;22.12;48.39;100737.81;131163;1258;107634;-74
2023/08/11 10:59:23;;;;;;;2.80;1.60;;;;;;;22.06;48.58;100738.27;131109;1251;107813;-74
2023/08/11 11:02:32;;;;;;;2.10;1.60;;;;;;;22.23;48.48;100738.65;131082;1256;108636;-74
2023/08/11 11:05:37;;;;;;;2.60;1.70;;;;;;;22.43;46.67;100737.91;131031;1264;107562;-75
2023/08/11 11:08:43;;;;;;;2.30;1.50;;;;;;;22.55;47.48;100736.65;131043;1263;107697;-74
2023/08/11 11:11:51;;;;;;;2.20;1.70;;;;;;;22.67;48.07;100733.42;131055;1253;107738;-74
2023/08/11 11:14:56;;;;;;;3.90;1.80;;;;;;;22.78;46.17;100735.89;131035;1254;107790;-74
2023/08/11 11:18:02;;;;;;;2.10;1.70;;;;;;;22.83;46.92;100735.31;130967;1251;109180;-75
2023/08/11 11:21:08;;;;;;;2.00;1.50;;;;;;;22.97;47.62;100733.64;131009;1257;108030;-75
2023/08/11 11:24:15;;;;;;;1.80;1.60;;;;;;;23.11;44.91;100738.40;131021;1262;107028;-75
2023/08/11 11:27:22;;;;;;;2.30;1.40;;;;;;;23.19;44.59;100736.59;130969;1253;107476;-74
2023/08/11 11:30:28;;;;;;;2.60;1.60;;;;;;;23.26;45.17;100732.16;131046;1253;108745;-74
2023/08/11 11:33:34;;;;;;;2.90;1.50;;;;;;;23.41;45.82;100730.29;131054;1257;107822;-75
2023/08/11 11:36:40;;;;;;;2.30;1.70;;;;;;;23.54;43.88;100738.07;131061;1251;107241;-74
2023/08/11 11:39:46;;;;;;;3.30;1.80;;;;;;;23.56;44.57;100743.02;131191;1263;106766;-74
2023/08/11 11:42:52;;;;;;;1.80;1.70;;;;;;;23.58;45.11;100738.45;131137;1263;108028;-74
2023/08/11 11:45:58;;;;;;;1.90;1.60;;;;;;;23.63;44.17;100735.90;130989;1255;107133;-74
2023/08/11 11:49:06;;;;;;;2.40;1.70;;;;;;;23.74;43.79;100731.83;130968;1257;108374;-75
2023/08/11 11:52:12;;;;;;;2.50;1.70;;;;;;;23.67;43.26;100729.61;131078;1257;106990;-75
2023/08/11 11:55:19;;;;;;;2.80;1.70;;;;;;;23.37;42.81;100730.00;131039;1258;107857;-74
2023/08/11 11:58:25;;;;;;;1.70;1.60;;;;;;;23.17;44.37;100730.38;131028;1254;107021;-75
2023/08/11 12:01:31;;;;;;;3.90;1.70;;;;;;;23.21;44.91;100726.17;130988;1263;107453;-74
2023/08/11 12:04:37;;;;;;;2.50;1.60;;;;;;;23.41;44.52;100727.94;131043;1251;106501;-75
2023/08/11 12:07:43;;;;;;;2.00;1.40;;;;;;;23.58;44.35;100727.79;131267;1253;107655;-74
2023/08/11 12:10:49;;;;;;;1.50;1.40;;;;;;;23.66;44.30;100725.08;131072;1254;107092;-74
2023/08/11 12:13:55;;;;;;;2.00;1.60;;;;;;;23.69;44.38;100723.75;130976;1254;107752;-74
2023/08/11 12:17:01;;;;;;;3.50;1.70;;;;;;;23.56;42.85;100721.04;130962;1261;106695;-74
2023/08/11 12:20:10;;;;;;;3.10;1.60;;;;;;;23.31;42.87;100728.17;131097;1254;107494;-75
2023/08/11 12:23:15;;;;;;;2.10;1.80;;;;;;;23.29;43.87;100729.13;131011;1263;107685;-75
2023/08/11 12:26:21;;;;;;;2.80;1.70;;;;;;;23.34;42.48;100735.39;131096;1263;108139;-75
2023/08/11 12:29:26;;;;;;;4.30;1.70;;;;;;;23.38;42.12;100727.96;131120;1254;107203;-75
2023/08/11 12:32:32;;;;;;;2.50;1.90;;;;;;;23.39;43.23;100737.56;131024;1256;106141;-74
2023/08/11 12:35:37;;;;;;;2.80;1.80;;;;;;;23.34;42.31;100738.23;131121;1264;107224;-75
2023/08/11 12:38:43;;;;;;;2.80;1.90;;;;;;;23.22;41.47;100739.34;131078;1251;108649;-74
2023/08/11 12:41:49;;;;;;;2.00;1.60;;;;;;;23.12;41.17;100739.48;131018;1255;107808;-74
2023/08/11 12:44:54;;;;;;;2.60;1.90;;;;;;;23.14;41.59;100735.73;131049;1263;106836;-74
2023/08/11 12:48:00;;;;;;;3.50;1.80;;;;;;;23.16;41.68;100733.27;131049;1254;107885;-74
2023/08/11 12:51:05;;;;;;;4.20;2.00;;;;;;;23.24;41.35;100734.11;130965;1257;162050;-74
2023/08/11 12:54:11;;;;;;;3.10;2.10;;;;;;;23.30;41.50;100735.89;131010;1251;107498;-74
2023/08/11 12:57:17;;;;;;;3.40;2.20;;;;;;;23.32;41.38;100740.69;130998;1254;107800;-74
2023/08/11 13:00:24;;;;;;;2.80;1.70;;;;;;;23.29;41.14;100732.39;131049;1251;106716;-74
2023/08/11 13:03:30;;;;;;;2.60;1.80;;;;;;;23.32;41.40;100729.58;131020;1253;107641;-74
2023/08/11 13:06:36;;;;;;;2.20;1.80;;;;;;;23.30;40.67;100730.83;131092;1254;106173;-74
2023/08/11 13:09:41;;;;;;;3.80;1.90;;;;;;;23.27;41.22;100732.59;131011;1254;106051;-74
2023/08/11 13:12:47;;;;;;;3.40;1.80;;;;;;;23.21;40.90;100735.02;131043;1254;107554;-75
2023/08/11 13:15:52;;;;;;;4.20;2.00;;;;;;;23.20;42.08;100730.64;131265;1254;108568;-74
2023/08/11 13:18:58;;;;;;;2.80;2.00;;;;;;;23.27;42.14;100727.41;131181;1260;106858;-74
2023/08/11 13:22:05;;;;;;;2.90;2.10;;;;;;;23.35;42.02;100732.06;131116;1253;106825;-73
2023/08/11 13:25:12;;;;;;;2.90;2.10;;;;;;;23.38;42.02;100733.50;131068;1254;107735;-74
2023/08/11 13:28:17;;;;;;;5.40;2.30;;;;;;;23.30;41.67;100736.44;131061;1264;106748;-75
2023/08/11 13:31:23;;;;;;;2.50;2.20;;;;;;;23.17;42.38;100733.52;130960;1256;106202;-74
2023/08/11 13:34:28;;;;;;;5.00;3.20;;;;;;;23.07;41.91;100735.41;131023;1254;107812;-74
2023/08/11 13:37:34;;;;;;;4.50;2.60;;;;;;;22.96;42.02;100738.92;131019;1254;108497;-74
2023/08/11 13:40:40;;;;;;;2.60;2.10;;;;;;;22.88;41.85;100737.05;130963;1254;107525;-74
2023/08/11 13:43:45;;;;;;;4.70;2.30;;;;;;;22.82;42.30;100737.79;131059;1254;107532;-77
2023/08/11 13:46:51;;;;;;;4.80;2.40;;;;;;;22.77;42.42;100740.71;131045;1251;108530;-74
2023/08/11 13:49:57;;;;;;;3.40;2.20;;;;;;;22.70;42.55;100735.91;130992;1252;108677;-76
2023/08/11 13:53:02;;;;;;;3.00;2.10;;;;;;;22.62;42.36;100733.84;131028;1257;107257;-76
2023/08/11 13:56:08;;;;;;;3.60;2.20;;;;;;;22.60;42.89;100733.35;130980;1264;107000;-75
2023/08/11 13:59:14;;;;;;;2.90;2.10;;;;;;;22.60;42.79;100732.71;131051;1254;106668;-74
2023/08/11 14:02:20;;;;;;;2.60;2.00;;;;;;;22.60;42.14;100734.11;131028;1251;107472;-75
2023/08/11 14:05:25;;;;;;;3.40;2.20;;;;;;;22.59;42.77;100730.15;131030;1251;107541;-74
2023/08/11 14:08:31;;;;;;;3.70;2.20;;;;;;;22.60;42.71;100729.75;131032;1261;106485;-75